createdAt,value
2019-03-28T00:01:07.294Z,16.53
2019-03-28T00:03:38.540Z,17.47
2019-03-28T00:06:09.760Z,17.03
2019-03-28T00:08:40.882Z,18.43
2019-03-28T00:11:12.092Z,18.50
2019-03-28T00:13:43.254Z,19.40
2019-03-28T00:16:14.932Z,20.50
2019-03-28T00:18:46.122Z,19.90
2019-03-28T00:21:17.241Z,20.87
2019-03-28T00:23:57.294Z,19.83
2019-03-28T00:26:30.373Z,19.17
2019-03-28T00:29:02.309Z,19.70
2019-03-28T00:31:33.686Z,21.43
2019-03-28T00:34:04.874Z,20.33
2019-03-28T00:36:36.063Z,19.73
2019-03-28T00:39:08.363Z,20.30
2019-03-28T00:41:39.597Z,21.83
2019-03-28T00:44:10.841Z,21.90
2019-03-28T00:46:42.094Z,21.90
2019-03-28T00:49:13.441Z,19.90
2019-03-28T00:51:44.670Z,21.27
2019-03-28T00:54:15.916Z,21.17
2019-03-28T00:56:47.653Z,21.30
2019-03-28T00:59:18.996Z,20.13
2019-03-28T01:01:50.240Z,20.83
2019-03-28T01:04:21.455Z,21.87
2019-03-28T01:06:52.652Z,20.83
2019-03-28T01:09:23.937Z,20.40
2019-03-28T01:11:55.076Z,20.90
2019-03-28T01:14:26.256Z,21.60
2019-03-28T01:16:57.383Z,20.83
2019-03-28T01:19:28.535Z,21.87
2019-03-28T01:21:59.733Z,20.53
2019-03-28T01:24:30.880Z,20.53
2019-03-28T01:27:02.079Z,20.50
2019-03-28T01:29:33.250Z,19.37
2019-03-28T01:32:04.446Z,18.57
2019-03-28T01:34:35.579Z,18.67
2019-03-28T01:37:06.732Z,18.47
2019-03-28T01:39:38.016Z,17.67
2019-03-28T01:42:09.116Z,17.57
2019-03-28T01:44:40.275Z,17.83
2019-03-28T01:47:11.356Z,17.13
2019-03-28T01:49:42.548Z,19.37
2019-03-28T01:52:13.664Z,14.67
2019-03-28T01:54:44.860Z,16.70
2019-03-28T01:57:15.988Z,18.77
2019-03-28T01:59:47.111Z,20.53
2019-03-28T02:02:18.268Z,21.10
2019-03-28T02:04:49.433Z,21.13
2019-03-28T02:07:20.579Z,22.00
2019-03-28T02:09:51.706Z,21.17
2019-03-28T02:12:22.846Z,22.70
2019-03-28T02:14:53.976Z,24.07
2019-03-28T02:17:25.179Z,23.97
2019-03-28T02:19:56.348Z,23.47
2019-03-28T02:22:27.496Z,23.03
2019-03-28T02:24:58.615Z,23.07
2019-03-28T02:27:29.768Z,22.20
2019-03-28T02:30:00.949Z,21.53
2019-03-28T02:32:32.140Z,21.20
2019-03-28T02:35:03.234Z,21.63
2019-03-28T02:37:34.343Z,22.50
2019-03-28T02:40:05.738Z,21.77
2019-03-28T02:42:36.964Z,21.93
2019-03-28T02:45:09.452Z,20.00
2019-03-28T02:47:43.336Z,21.07
2019-03-28T02:50:14.480Z,21.17
2019-03-28T02:52:45.642Z,21.30
2019-03-28T02:55:16.769Z,21.03
2019-03-28T02:57:48.025Z,21.93
2019-03-28T03:00:19.156Z,22.13
2019-03-28T03:02:50.200Z,22.33
2019-03-28T03:05:21.320Z,21.70
2019-03-28T03:07:52.381Z,21.10
2019-03-28T03:13:15.054Z,20.53
2019-03-28T03:15:46.133Z,20.83
2019-03-28T03:18:21.175Z,21.17
2019-03-28T03:20:49.922Z,21.77
2019-03-28T03:23:21.057Z,21.23
2019-03-28T03:25:52.068Z,21.20
2019-03-28T03:28:24.160Z,21.47
2019-03-28T03:30:55.238Z,22.60
2019-03-28T03:33:26.269Z,21.60
2019-03-28T03:35:57.363Z,21.37
2019-03-28T03:38:29.837Z,21.33
2019-03-28T03:41:00.922Z,20.23
2019-03-28T03:43:32.023Z,20.90
2019-03-28T03:46:03.054Z,20.80
2019-03-28T03:48:34.324Z,20.17
2019-03-28T03:51:05.332Z,20.70
2019-03-28T03:53:36.773Z,19.43
2019-03-28T03:56:07.876Z,18.73
2019-03-28T03:58:38.901Z,18.10
2019-03-28T04:01:09.980Z,18.17
2019-03-28T04:03:41.045Z,18.20
2019-03-28T04:06:12.040Z,18.70
2019-03-28T04:11:32.213Z,17.37
2019-03-28T04:14:03.272Z,17.87
2019-03-28T04:16:34.416Z,18.37
2019-03-28T04:19:05.957Z,19.13
2019-03-28T04:21:38.113Z,17.93
2019-03-28T04:24:09.183Z,18.33
2019-03-28T04:26:40.345Z,19.27
2019-03-28T04:29:11.319Z,18.30
2019-03-28T04:31:42.434Z,18.23
2019-03-28T04:34:13.556Z,18.03
2019-03-28T04:36:44.552Z,18.03
2019-03-28T04:39:16.574Z,18.50
2019-03-28T04:41:47.905Z,17.40
2019-03-28T04:44:19.005Z,17.27
2019-03-28T04:46:50.158Z,18.60
2019-03-28T04:49:21.184Z,17.13
2019-03-28T04:51:52.308Z,17.53
2019-03-28T04:54:23.343Z,17.47
2019-03-28T04:56:54.456Z,16.53
2019-03-28T04:59:25.555Z,16.10
2019-03-28T05:02:02.957Z,17.07
2019-03-28T05:04:29.402Z,16.30
2019-03-28T05:07:00.472Z,15.80
2019-03-28T05:09:31.616Z,15.33
2019-03-28T05:12:02.631Z,15.63
2019-03-28T05:14:33.771Z,15.83
2019-03-28T05:17:04.919Z,14.47
2019-03-28T05:19:35.995Z,15.23
2019-03-28T05:22:07.046Z,15.77
2019-03-28T05:24:38.153Z,15.07
2019-03-28T05:27:09.267Z,15.23
2019-03-28T05:32:29.771Z,15.07
2019-03-28T05:35:00.812Z,14.13
2019-03-28T05:37:31.901Z,14.77
2019-03-28T05:40:02.970Z,14.63
2019-03-28T05:42:34.059Z,14.77
2019-03-28T05:45:05.492Z,15.00
2019-03-28T05:47:36.541Z,14.47
2019-03-28T05:50:07.872Z,14.77
2019-03-28T05:52:38.993Z,15.63
2019-03-28T05:55:10.173Z,14.73
2019-03-28T05:57:41.367Z,15.43
2019-03-28T06:00:12.678Z,16.53
2019-03-28T06:02:43.809Z,15.33
2019-03-28T06:05:14.884Z,14.87
2019-03-28T06:07:45.934Z,15.50
2019-03-28T06:10:17.155Z,15.90
2019-03-28T06:12:48.328Z,15.30
2019-03-28T06:15:19.443Z,14.83
2019-03-28T06:17:50.505Z,16.07
2019-03-28T06:20:21.609Z,15.10
2019-03-28T06:22:52.658Z,15.47
2019-03-28T06:25:23.744Z,14.97
2019-03-28T06:27:54.863Z,15.07
2019-03-28T06:30:25.922Z,14.87
2019-03-28T06:32:58.881Z,15.33
2019-03-28T06:35:29.700Z,15.17
2019-03-28T06:38:00.744Z,15.87
2019-03-28T06:40:32.736Z,15.33
2019-03-28T06:43:03.892Z,14.70
2019-03-28T06:45:35.875Z,15.83
2019-03-28T06:48:07.070Z,15.60
2019-03-28T06:50:38.204Z,15.70
2019-03-28T06:55:58.928Z,14.93
2019-03-28T06:58:30.004Z,14.83
2019-03-28T07:01:01.184Z,16.30
2019-03-28T07:03:32.319Z,16.43
2019-03-28T07:06:03.470Z,17.00
2019-03-28T07:08:34.517Z,16.23
2019-03-28T07:11:05.547Z,16.83
2019-03-28T07:13:36.652Z,15.07
2019-03-28T07:16:07.735Z,15.20
2019-03-28T07:18:38.837Z,15.33
2019-03-28T07:21:09.865Z,14.67
2019-03-28T07:23:40.947Z,15.77
2019-03-28T07:26:12.045Z,15.60
2019-03-28T07:31:25.893Z,15.73
2019-03-28T07:33:57.015Z,16.13
2019-03-28T07:36:28.030Z,16.13
2019-03-28T07:39:00.158Z,15.17
2019-03-28T07:41:31.268Z,16.30
2019-03-28T07:44:02.376Z,16.10
2019-03-28T07:46:33.428Z,15.33
2019-03-28T07:49:04.452Z,15.47
2019-03-28T07:51:35.534Z,16.50
2019-03-28T07:54:06.585Z,16.57
2019-03-28T07:56:37.685Z,15.20
2019-03-28T07:59:08.819Z,16.70
2019-03-28T08:01:39.987Z,16.43
2019-03-28T08:04:12.395Z,17.77
2019-03-28T08:06:49.787Z,18.73
2019-03-28T08:09:17.526Z,17.20
2019-03-28T08:11:48.870Z,16.43
2019-03-28T08:14:19.979Z,16.57
2019-03-28T08:16:51.040Z,15.73
2019-03-28T08:19:22.177Z,16.40
2019-03-28T08:24:35.359Z,15.73
2019-03-28T08:27:06.508Z,16.13
2019-03-28T08:29:37.613Z,15.23
2019-03-28T08:32:13.648Z,16.30
2019-03-28T08:34:44.948Z,17.17
2019-03-28T08:37:16.335Z,16.07
2019-03-28T08:39:47.355Z,14.30
2019-03-28T08:42:18.388Z,15.80
2019-03-28T08:44:49.395Z,14.77
2019-03-28T08:47:20.534Z,15.27
2019-03-28T08:49:51.627Z,14.43
2019-03-28T08:52:22.703Z,14.57
2019-03-28T08:54:53.911Z,14.87
2019-03-28T08:57:25.015Z,14.40
2019-03-28T08:59:56.149Z,13.77
2019-03-28T09:02:27.155Z,14.93
2019-03-28T09:04:58.256Z,15.27
2019-03-28T09:07:29.357Z,14.93
2019-03-28T09:10:00.559Z,14.70
2019-03-28T09:12:34.885Z,14.10
2019-03-28T09:15:05.043Z,14.50
2019-03-28T09:17:36.199Z,14.43
2019-03-28T09:20:07.670Z,14.77
2019-03-28T09:22:39.187Z,14.33
2019-03-28T09:25:10.488Z,14.77
2019-03-28T09:27:41.593Z,14.20
2019-03-28T09:30:13.332Z,13.50
2019-03-28T09:32:44.413Z,14.53
2019-03-28T09:35:19.432Z,17.43
2019-03-28T09:37:50.478Z,15.00
2019-03-28T09:40:21.560Z,14.57
2019-03-28T09:42:53.680Z,13.67
2019-03-28T09:45:25.760Z,14.40
2019-03-28T09:47:56.851Z,14.03
2019-03-28T09:50:27.967Z,15.83
2019-03-28T09:52:59.072Z,15.67
2019-03-28T09:55:30.159Z,15.30
2019-03-28T09:58:01.266Z,17.43
2019-03-28T10:00:32.936Z,16.17
2019-03-28T10:03:04.496Z,15.53
2019-03-28T10:05:37.964Z,15.10
2019-03-28T10:08:08.343Z,14.77
2019-03-28T10:10:39.466Z,14.27
2019-03-28T10:13:10.558Z,14.97
2019-03-28T10:15:41.671Z,15.97
2019-03-28T10:18:12.767Z,13.77
2019-03-28T10:20:43.986Z,13.87
2019-03-28T10:23:15.083Z,14.23
2019-03-28T10:25:46.288Z,13.87
2019-03-28T10:28:17.311Z,13.07
2019-03-28T10:30:48.475Z,14.37
2019-03-28T10:33:19.568Z,13.77
2019-03-28T10:35:50.708Z,13.77
2019-03-28T10:38:21.738Z,13.30
2019-03-28T10:40:52.878Z,13.47
2019-03-28T10:43:23.980Z,13.33
2019-03-28T10:45:55.096Z,15.20
2019-03-28T10:48:26.229Z,14.37
2019-03-28T10:50:57.383Z,14.30
2019-03-28T10:53:30.219Z,15.57
2019-03-28T10:56:01.466Z,14.60
2019-03-28T10:58:34.991Z,14.17
2019-03-28T11:01:06.691Z,14.77
2019-03-28T11:03:37.826Z,13.30
2019-03-28T11:06:08.922Z,13.97
2019-03-28T11:08:40.095Z,13.90
2019-03-28T11:11:11.315Z,13.80
2019-03-28T11:13:42.416Z,14.63
2019-03-28T11:16:15.071Z,14.93
2019-03-28T11:18:46.340Z,14.50
2019-03-28T11:21:17.447Z,14.67
2019-03-28T11:23:48.569Z,14.73
2019-03-28T11:26:19.693Z,13.67
2019-03-28T11:28:50.858Z,13.93
2019-03-28T11:31:21.889Z,14.60
2019-03-28T11:33:52.944Z,15.37
2019-03-28T11:36:24.057Z,14.63
2019-03-28T11:38:55.158Z,15.13
2019-03-28T11:41:26.191Z,14.10
2019-03-28T11:43:57.297Z,13.10
2019-03-28T11:46:28.376Z,13.90
2019-03-28T11:49:00.253Z,14.60
2019-03-28T11:51:31.420Z,14.20
2019-03-28T11:54:02.553Z,14.53
2019-03-28T11:56:33.665Z,13.70
2019-03-28T11:59:04.930Z,14.73
2019-03-28T12:01:37.310Z,14.40
2019-03-28T12:04:08.355Z,13.93
2019-03-28T12:06:39.488Z,14.37
2019-03-28T12:09:10.639Z,14.17
2019-03-28T12:11:41.753Z,13.77
2019-03-28T12:14:12.886Z,13.50
2019-03-28T12:19:33.832Z,13.77
2019-03-28T12:22:04.903Z,13.27
2019-03-28T12:24:35.943Z,13.83
2019-03-28T12:27:07.059Z,14.23
2019-03-28T12:29:38.136Z,13.47
2019-03-28T12:32:14.349Z,14.03
2019-03-28T12:34:41.961Z,14.43
2019-03-28T12:37:13.288Z,14.20
2019-03-28T12:39:44.351Z,14.13
2019-03-28T12:42:15.400Z,13.17
2019-03-28T12:44:56.859Z,12.53
2019-03-28T12:47:20.179Z,13.07
2019-03-28T12:49:51.228Z,14.07
2019-03-28T12:52:22.245Z,13.83
2019-03-28T12:54:53.233Z,14.10
2019-03-28T12:57:24.239Z,13.17
2019-03-28T12:59:55.299Z,12.70
2019-03-28T13:02:31.405Z,13.83
2019-03-28T13:04:58.963Z,13.63
2019-03-28T13:07:30.001Z,13.53
2019-03-28T13:10:01.975Z,12.83
2019-03-28T13:12:33.472Z,14.00
2019-03-28T13:15:05.303Z,15.03
2019-03-28T13:17:36.380Z,13.30
2019-03-28T13:20:08.389Z,13.60
2019-03-28T13:22:39.475Z,13.40
2019-03-28T13:25:10.936Z,13.87
2019-03-28T13:27:41.995Z,13.87
2019-03-28T13:30:14.729Z,13.53
2019-03-28T13:32:45.811Z,13.07
2019-03-28T13:35:16.948Z,13.03
2019-03-28T13:37:47.952Z,13.43
2019-03-28T13:40:19.098Z,13.23
2019-03-28T13:42:52.858Z,13.73
2019-03-28T13:45:22.947Z,13.50
2019-03-28T13:47:54.490Z,13.77
2019-03-28T13:50:26.738Z,13.83
2019-03-28T13:52:57.768Z,13.77
2019-03-28T13:55:28.810Z,14.33
2019-03-28T13:57:59.878Z,14.07
2019-03-28T14:00:34.779Z,12.30
2019-03-28T14:03:05.926Z,13.43
2019-03-28T14:05:37.023Z,11.20
2019-03-28T14:08:08.095Z,11.30
2019-03-28T14:10:39.223Z,12.73
2019-03-28T14:13:10.307Z,12.53
2019-03-28T14:15:41.304Z,13.23
2019-03-28T14:18:12.404Z,12.63
2019-03-28T14:20:43.407Z,12.23
2019-03-28T14:23:14.441Z,13.93
2019-03-28T14:25:45.481Z,13.43
2019-03-28T14:28:16.590Z,12.85
2019-03-28T14:30:47.634Z,11.27
2019-03-28T14:33:18.722Z,12.80
2019-03-28T14:35:49.842Z,13.38
2019-03-28T14:38:20.923Z,13.10
2019-03-28T14:40:51.975Z,12.18
2019-03-28T14:43:23.099Z,12.73
2019-03-28T14:45:54.155Z,11.17
2019-03-28T14:48:25.278Z,11.43
2019-03-28T14:50:56.476Z,11.83
2019-03-28T14:53:28.719Z,11.22
2019-03-28T14:56:01.115Z,11.10
2019-03-28T14:58:33.691Z,11.30
2019-03-28T15:01:04.811Z,11.25
2019-03-28T15:03:35.884Z,10.53
2019-03-28T15:06:06.899Z,10.08
2019-03-28T15:08:37.958Z,10.13
2019-03-28T15:11:09.028Z,9.43
2019-03-28T15:13:40.563Z,10.08
2019-03-28T15:16:11.731Z,10.48
2019-03-28T15:18:43.132Z,8.70
2019-03-28T15:21:14.230Z,8.78
2019-03-28T15:23:45.371Z,8.18
2019-03-28T15:26:16.416Z,9.63
2019-03-28T15:28:47.499Z,12.03
2019-03-28T15:31:18.624Z,9.95
2019-03-28T15:33:49.697Z,8.45
2019-03-28T15:36:23.168Z,7.75
2019-03-28T15:38:53.953Z,7.80
2019-03-28T15:41:25.087Z,8.10
2019-03-28T15:43:56.164Z,8.38
2019-03-28T15:46:27.207Z,6.65
2019-03-28T15:48:58.289Z,5.00
2019-03-28T15:53:44.320Z,5.15
2019-03-28T15:56:15.380Z,5.90
2019-03-28T15:58:46.613Z,6.50
2019-03-28T16:01:17.760Z,6.22
2019-03-28T16:03:53.184Z,5.67
2019-03-28T16:06:22.498Z,8.33
2019-03-28T16:08:53.855Z,7.37
2019-03-28T16:11:25.059Z,6.35
2019-03-28T16:13:56.519Z,5.90
2019-03-28T16:16:28.285Z,6.03
2019-03-28T16:19:03.180Z,5.70
2019-03-28T16:21:34.269Z,5.62
2019-03-28T16:24:05.451Z,11.12
2019-03-28T16:26:36.671Z,11.73
2019-03-28T16:29:07.996Z,11.20
2019-03-28T16:31:39.229Z,11.97
2019-03-28T16:34:10.604Z,11.87
2019-03-28T16:36:42.092Z,12.30
2019-03-28T16:39:13.392Z,13.22
2019-03-28T16:41:44.990Z,14.70
2019-03-28T16:44:16.299Z,13.77
2019-03-28T16:46:47.644Z,13.20
2019-03-28T16:49:19.888Z,14.17
2019-03-28T16:51:52.196Z,13.57
2019-03-28T16:54:23.331Z,13.10
2019-03-28T16:56:54.867Z,12.70
2019-03-28T17:02:15.522Z,12.03
2019-03-28T17:04:46.701Z,13.43
2019-03-28T17:07:18.209Z,13.33
2019-03-28T17:09:49.508Z,12.07
2019-03-28T17:12:20.711Z,11.90
2019-03-28T17:14:52.032Z,12.87
2019-03-28T17:17:23.387Z,12.80
2019-03-28T17:19:54.961Z,12.93
2019-03-28T17:22:26.274Z,12.60
2019-03-28T17:24:57.509Z,13.77
2019-03-28T17:27:28.763Z,13.80
2019-03-28T17:30:00.619Z,13.90
2019-03-28T17:32:32.576Z,14.57
2019-03-28T17:35:03.937Z,14.93
2019-03-28T17:37:35.318Z,14.30
2019-03-28T17:40:06.653Z,14.87
2019-03-28T17:42:38.072Z,14.63
2019-03-28T17:45:09.798Z,14.53
2019-03-28T17:47:40.965Z,15.87
2019-03-28T17:50:12.391Z,14.37
2019-03-28T17:52:43.506Z,13.97
2019-03-28T17:55:15.027Z,13.67
2019-03-28T17:57:46.511Z,14.53
2019-03-28T18:00:18.267Z,14.40
2019-03-28T18:02:49.683Z,15.00
2019-03-28T18:05:21.357Z,14.43
2019-03-28T18:07:53.133Z,14.50
2019-03-28T18:10:24.813Z,14.33
2019-03-28T18:13:06.904Z,14.23
2019-03-28T18:15:38.400Z,13.97
2019-03-28T18:18:11.855Z,14.87
2019-03-28T18:20:43.049Z,14.10
2019-03-28T18:23:14.486Z,14.43
2019-03-28T18:25:46.106Z,14.17
2019-03-28T18:28:17.503Z,14.10
2019-03-28T18:30:48.706Z,13.50
2019-03-28T18:33:20.012Z,13.50
2019-03-28T18:35:51.300Z,13.60
2019-03-28T18:38:22.855Z,13.13
2019-03-28T18:40:54.128Z,13.63
2019-03-28T18:43:25.415Z,13.10
2019-03-28T18:45:56.654Z,14.10
2019-03-28T18:48:35.862Z,14.87
2019-03-28T18:51:01.229Z,13.90
2019-03-28T18:53:32.450Z,15.03
2019-03-28T18:56:03.720Z,14.60
2019-03-28T18:58:34.903Z,14.47
2019-03-28T19:01:06.227Z,19.57
2019-03-28T19:03:37.903Z,16.90
2019-03-28T19:06:09.251Z,16.43
2019-03-28T19:11:29.716Z,17.23
2019-03-28T19:14:00.988Z,18.20
2019-03-28T19:16:32.443Z,19.57
2019-03-28T19:19:03.805Z,20.53
2019-03-28T19:21:35.196Z,18.90
2019-03-28T19:24:06.607Z,17.30
2019-03-28T19:26:37.746Z,16.70
2019-03-28T19:29:09.632Z,16.53
2019-03-28T19:31:40.967Z,20.30
2019-03-28T19:34:12.211Z,20.63
2019-03-28T19:36:44.970Z,18.23
2019-03-28T19:39:20.791Z,18.97
2019-03-28T19:41:52.325Z,19.23
2019-03-28T19:44:25.850Z,20.47
2019-03-28T19:46:56.730Z,19.73
2019-03-28T19:49:28.176Z,18.57
2019-03-28T19:52:03.763Z,20.53
2019-03-28T19:54:35.862Z,20.23
2019-03-28T19:57:07.307Z,19.80
2019-03-28T19:59:38.999Z,25.60
2019-03-28T20:02:10.257Z,30.93
2019-03-28T20:04:41.533Z,27.30
2019-03-28T20:07:21.560Z,26.37
2019-03-28T20:09:46.142Z,24.60
2019-03-28T20:12:17.579Z,28.13
2019-03-28T20:17:38.018Z,63.20
2019-03-28T20:20:10.770Z,66.23
2019-03-28T20:22:44.879Z,79.77
2019-03-28T20:25:15.174Z,52.17
2019-03-28T20:27:46.598Z,39.60
2019-03-28T20:30:18.181Z,40.77
2019-03-28T20:32:49.578Z,37.27
2019-03-28T20:35:21.927Z,34.90
2019-03-28T20:37:55.943Z,30.43
2019-03-28T20:40:27.251Z,23.60
2019-03-28T20:42:58.511Z,20.77
2019-03-28T20:45:29.961Z,19.40
2019-03-28T20:48:01.369Z,17.50
2019-03-28T20:50:32.754Z,18.20
2019-03-28T20:53:04.238Z,18.63
2019-03-28T20:55:36.280Z,19.80
2019-03-28T20:58:07.762Z,19.57
2019-03-28T21:00:48.944Z,19.20
2019-03-28T21:03:20.461Z,20.40
2019-03-28T21:05:51.870Z,18.73
2019-03-28T21:08:23.494Z,18.70
2019-03-28T21:10:55.127Z,18.53
2019-03-28T21:13:29.720Z,18.93
2019-03-28T21:15:59.871Z,18.90
2019-03-28T21:18:31.424Z,18.90
2019-03-28T21:21:03.093Z,18.80
2019-03-28T21:23:34.508Z,17.20
2019-03-28T21:26:06.316Z,18.83
2019-03-28T21:31:19.919Z,20.03
2019-03-28T21:33:54.641Z,20.77
2019-03-28T21:36:30.035Z,28.40
2019-03-28T21:38:57.574Z,34.00
2019-03-28T21:41:29.113Z,34.17
2019-03-28T21:44:00.874Z,32.10
2019-03-28T21:46:32.805Z,34.73
2019-03-28T21:49:04.286Z,37.50
2019-03-28T21:51:35.784Z,36.17
2019-03-28T21:54:07.842Z,34.77
2019-03-28T21:56:41.469Z,29.57
2019-03-28T21:59:13.617Z,24.70
2019-03-28T22:01:44.972Z,25.43
2019-03-28T22:04:16.395Z,26.13
2019-03-28T22:06:48.927Z,33.30
2019-03-28T22:09:20.244Z,46.53
2019-03-28T22:11:51.789Z,58.23
2019-03-28T22:14:23.606Z,76.80
2019-03-28T22:16:54.982Z,75.70
2019-03-28T22:19:26.719Z,73.43
2019-03-28T22:21:58.320Z,65.30
2019-03-28T22:24:30.725Z,50.20
2019-03-28T22:27:02.175Z,44.70
2019-03-28T22:29:33.595Z,42.17
2019-03-28T22:32:04.889Z,37.43
2019-03-28T22:34:36.428Z,35.90
2019-03-28T22:37:07.999Z,31.50
2019-03-28T22:39:39.530Z,29.50
2019-03-28T22:42:10.861Z,26.43
2019-03-28T22:44:42.258Z,25.13
2019-03-28T22:47:13.849Z,23.93
2019-03-28T22:49:45.797Z,24.03
2019-03-28T22:52:17.504Z,24.00
2019-03-28T22:54:49.657Z,24.37
2019-03-28T22:57:21.461Z,24.10
2019-03-28T22:59:53.156Z,23.13
2019-03-28T23:02:24.525Z,24.17
2019-03-28T23:04:55.985Z,23.33
2019-03-28T23:07:27.928Z,23.43
2019-03-28T23:09:59.475Z,23.83
2019-03-28T23:12:31.393Z,23.33
2019-03-28T23:15:02.901Z,24.50
2019-03-28T23:17:34.219Z,22.87
2019-03-28T23:20:06.965Z,23.83
2019-03-28T23:22:40.471Z,24.67
2019-03-28T23:25:11.869Z,23.37
2019-03-28T23:27:43.179Z,24.23
2019-03-28T23:30:14.474Z,24.27
2019-03-28T23:32:45.939Z,24.00
2019-03-28T23:35:17.431Z,26.70
2019-03-28T23:37:48.829Z,27.17
2019-03-28T23:40:20.603Z,25.83
2019-03-28T23:42:52.112Z,27.17
2019-03-28T23:45:23.571Z,28.37
2019-03-28T23:47:55.763Z,29.23
2019-03-28T23:50:27.054Z,29.37
2019-03-28T23:52:58.299Z,29.80
2019-03-28T23:55:29.855Z,26.83
2019-03-28T23:58:01.123Z,26.63
